Date,TemperatureHighF,TemperatureAvgF,TemperatureLowF,DewpointHighF,DewpointAvgF,DewpointLowF,HumidityHigh,HumidityAvg,HumidityLow,PressureMaxIn,PressureMinIn,WindSpeedMaxMPH,WindSpeedAvgMPH,GustSpeedMaxMPH,PrecipitationSumIn
2013-6-1,68,63,57,62,55,50,90,77,66,29.83,29.53,2,1,9,0.01
2013-6-2,66,58,53,51,46,43,79,65,45,29.99,29.83,1,0,7,0.00
2013-6-3,73,61,47,51,48,44,91,64,40,30.00,29.85,1,0,6,0.00
2013-6-4,67,61,56,63,56,50,94,85,71,29.96,29.86,1,0,9,0.22
2013-6-5,68,64,61,62,60,53,96,87,66,29.91,29.82,1,0,5,0.03
2013-6-6,71,62,52,57,52,49,91,71,51,29.89,29.82,2,0,6,0.00
2013-6-7,69,60,51,55,51,48,94,73,52,29.93,29.83,1,0,6,0.00
2013-6-8,75,64,53,62,55,50,93,75,49,29.85,29.68,1,0,3,0.06
2013-6-9,73,65,61,64,61,58,96,86,66,29.70,29.61,3,0,5,0.24
2013-6-10,79,68,60,64,62,58,99,82,57,29.81,29.66,1,0,1,0.00
2013-6-11,87,75,64,73,67,62,92,78,57,29.80,29.64,0,0,4,0.00
2013-6-12,90,77,66,72,67,57,92,73,49,29.76,29.56,4,1,11,0.02
2013-6-13,82,72,61,61,57,52,83,60,37,29.95,29.76,2,0,11,0.00
2013-6-14,76,68,65,67,61,56,94,77,60,29.95,29.75,4,0,4,0.59
2013-6-15,82,71,64,73,67,63,97,88,68,29.95,29.75,3,0,12,0.57
2013-6-16,85,75,66,69,63,56,96,70,38,29.87,29.81,0,0,3,0.00
2013-6-17,88,77,66,66,59,49,92,57,27,29.87,29.79,1,0,5,0.00
2013-6-18,84,74,63,62,57,52,80,57,34,29.91,29.83,1,0,7,0.00
2013-6-19,84,74,64,67,63,60,89,69,46,29.96,29.86,1,0,1,0.00
2013-6-20,88,78,67,70,65,61,84,65,47,29.92,29.80,1,0,11,0.00
2013-6-21,90,80,75,76,71,66,85,73,60,29.87,29.75,1,0,8,0.02
2013-6-22,92,83,76,74,71,69,80,68,53,29.88,29.72,1,0,4,0.00
2013-6-23,79,75,65,71,68,63,95,81,68,29.85,29.70,2,0,10,0.74
2013-6-24,79,72,68,74,69,66,95,88,78,29.84,29.71,2,0,5,0.12
2013-6-25,88,78,71,74,71,67,95,80,52,29.73,29.60,1,0,1,0.00
2013-6-26,90,82,74,76,70,64,89,70,42,29.73,29.54,3,0,8,0.00
2013-6-27,86,77,68,70,66,63,84,69,53,29.84,29.73,2,0,7,0.00
2013-6-28,85,77,70,64,57,50,75,52,31,29.78,29.67,5,1,10,0.00
2013-6-29,75,70,65,65,58,55,92,67,50,29.80,29.66,3,0,11,0.19
2013-6-30,78,69,60,59,54,49,84,61,36,29.97,29.80,1,0,3,0.00